sensor_id;sensor_type;location;lat;lon;timestamp;pressure;altitude;pressure_sealevel;temperature;humidity
49627;BME280;35527;54.616;39.786;2023-05-03T00:00:39;100503.78;;;7.84;51.72
49627;BME280;35527;54.616;39.786;2023-05-03T00:03:46;100506.41;;;7.81;51.47
49627;BME280;35527;54.616;39.786;2023-05-03T00:06:54;100511.66;;;7.76;51.53
49627;BME280;35527;54.616;39.786;2023-05-03T00:09:59;100487.84;;;7.62;51.73
49627;BME280;35527;54.616;39.786;2023-05-03T00:13:02;100500.53;;;7.74;51.71
49627;BME280;35527;54.616;39.786;2023-05-03T00:16:05;100506.63;;;7.68;51.53
49627;BME280;35527;54.616;39.786;2023-05-03T00:19:08;100488.75;;;7.59;51.53
49627;BME280;35527;54.616;39.786;2023-05-03T00:22:14;100500.59;;;7.70;51.65
49627;BME280;35527;54.616;39.786;2023-05-03T00:25:19;100499.69;;;7.72;51.47
49627;BME280;35527;54.616;39.786;2023-05-03T00:28:23;100490.44;;;7.62;51.51
49627;BME280;35527;54.616;39.786;2023-05-03T00:31:27;100468.19;;;7.56;51.24
49627;BME280;35527;54.616;39.786;2023-05-03T00:34:30;100491.94;;;7.74;51.27
49627;BME280;35527;54.616;39.786;2023-05-03T00:37:36;100459.41;;;7.66;51.47
49627;BME280;35527;54.616;39.786;2023-05-03T00:40:41;100462.88;;;7.65;51.22
49627;BME280;35527;54.616;39.786;2023-05-03T00:43:45;100446.75;;;7.56;51.61
49627;BME280;35527;54.616;39.786;2023-05-03T00:46:49;100479.91;;;7.76;51.85
49627;BME280;35527;54.616;39.786;2023-05-03T00:49:55;100485.84;;;7.78;52.03
49627;BME280;35527;54.616;39.786;2023-05-03T00:52:59;100477.44;;;7.68;52.03
49627;BME280;35527;54.616;39.786;2023-05-03T00:56:03;100473.19;;;7.65;52.41
49627;BME280;35527;54.616;39.786;2023-05-03T00:59:10;100468.94;;;7.63;52.19
49627;BME280;35527;54.616;39.786;2023-05-03T01:02:14;100472.34;;;7.65;52.18
49627;BME280;35527;54.616;39.786;2023-05-03T01:05:20;100474.03;;;7.67;52.34
49627;BME280;35527;54.616;39.786;2023-05-03T01:08:28;100474.81;;;7.71;52.42
49627;BME280;35527;54.616;39.786;2023-05-03T01:15:16;100456.84;;;7.68;52.28
49627;BME280;35527;54.616;39.786;2023-05-03T01:18:29;100455.16;;;7.65;52.00
49627;BME280;35527;54.616;39.786;2023-05-03T01:21:36;100455.94;;;7.71;51.72
49627;BME280;35527;54.616;39.786;2023-05-03T01:24:40;100457.63;;;7.73;52.07
49627;BME280;35527;54.616;39.786;2023-05-03T01:27:47;100449.91;;;7.72;51.83
49627;BME280;35527;54.616;39.786;2023-05-03T01:30:54;100466.16;;;7.75;52.05
49627;BME280;35527;54.616;39.786;2023-05-03T01:37:21;100435.16;;;7.80;51.66
49627;BME280;35527;54.616;39.786;2023-05-03T01:40:29;100447.69;;;7.98;51.31
49627;BME280;35527;54.616;39.786;2023-05-03T01:43:34;100437.38;;;7.98;51.30
49627;BME280;35527;54.616;39.786;2023-05-03T01:46:46;100454.44;;;8.07;51.47
49627;BME280;35527;54.616;39.786;2023-05-03T01:49:49;100450.31;;;7.97;51.98
49627;BME280;35527;54.616;39.786;2023-05-03T01:52:53;100451.28;;;7.89;51.36
49627;BME280;35527;54.616;39.786;2023-05-03T01:55:56;100428.38;;;7.74;52.22
49627;BME280;35527;54.616;39.786;2023-05-03T01:58:59;100444.53;;;7.84;52.32
49627;BME280;35527;54.616;39.786;2023-05-03T02:02:02;100438.63;;;7.77;52.49
49627;BME280;35527;54.616;39.786;2023-05-03T02:05:10;100449.78;;;7.78;52.65
49627;BME280;35527;54.616;39.786;2023-05-03T02:08:14;100454.09;;;7.77;52.95
49627;BME280;35527;54.616;39.786;2023-05-03T02:11:18;100442.09;;;7.76;53.22
49627;BME280;35527;54.616;39.786;2023-05-03T02:14:23;100442.88;;;7.81;53.17
49627;BME280;35527;54.616;39.786;2023-05-03T02:17:28;100442.75;;;7.87;53.26
49627;BME280;35527;54.616;39.786;2023-05-03T02:20:30;100442.66;;;7.92;53.02
49627;BME280;35527;54.616;39.786;2023-05-03T02:23:39;100409.22;;;7.89;52.54
49627;BME280;35527;54.616;39.786;2023-05-03T02:26:43;100443.19;;;8.11;52.45
49627;BME280;35527;54.616;39.786;2023-05-03T02:29:46;100440.47;;;8.19;52.23
49627;BME280;35527;54.616;39.786;2023-05-03T02:32:50;100442.03;;;8.27;51.70
49627;BME280;35527;54.616;39.786;2023-05-03T02:35:55;100423.31;;;8.16;52.18
49627;BME280;35527;54.616;39.786;2023-05-03T02:38:59;100444.47;;;8.33;51.90
49627;BME280;35527;54.616;39.786;2023-05-03T02:42:06;100445.94;;;8.47;51.30
49627;BME280;35527;54.616;39.786;2023-05-03T02:45:10;100439.94;;;8.48;51.40
49627;BME280;35527;54.616;39.786;2023-05-03T02:48:15;100444.19;;;8.50;51.18
49627;BME280;35527;54.616;39.786;2023-05-03T02:51:19;100445.78;;;8.56;51.09
49627;BME280;35527;54.616;39.786;2023-05-03T02:54:24;100429.44;;;8.55;51.24
49627;BME280;35527;54.616;39.786;2023-05-03T02:57:28;100419.94;;;8.57;51.36
49627;BME280;35527;54.616;39.786;2023-05-03T03:00:32;100408.78;;;8.57;51.54
49627;BME280;35527;54.616;39.786;2023-05-03T03:03:36;100443.50;;;8.81;51.03
49627;BME280;35527;54.616;39.786;2023-05-03T03:06:39;100440.84;;;8.84;50.66
49627;BME280;35527;54.616;39.786;2023-05-03T03:09:43;100433.13;;;8.84;50.74
49627;BME280;35527;54.616;39.786;2023-05-03T03:12:46;100440.59;;;8.96;50.70
49627;BME280;35527;54.616;39.786;2023-05-03T03:15:57;100440.75;;;9.28;49.95
49627;BME280;35527;54.616;39.786;2023-05-03T03:19:00;100454.78;;;10.81;46.84
49627;BME280;35527;54.616;39.786;2023-05-03T03:22:04;100400.69;;;12.52;42.72
49627;BME280;35527;54.616;39.786;2023-05-03T03:25:09;100429.34;;;13.81;40.85
49627;BME280;35527;54.616;39.786;2023-05-03T03:28:17;100433.84;;;13.57;40.72
49627;BME280;35527;54.616;39.786;2023-05-03T03:31:23;100427.06;;;14.14;39.72
49627;BME280;35527;54.616;39.786;2023-05-03T03:34:30;100437.72;;;14.08;39.53
49627;BME280;35527;54.616;39.786;2023-05-03T03:37:36;100441.09;;;13.91;39.58
49627;BME280;35527;54.616;39.786;2023-05-03T03:40:40;100446.88;;;14.37;39.29
49627;BME280;35527;54.616;39.786;2023-05-03T03:43:42;100416.78;;;13.90;40.43
49627;BME280;35527;54.616;39.786;2023-05-03T03:46:51;100445.16;;;14.17;40.00
49627;BME280;35527;54.616;39.786;2023-05-03T03:49:58;100438.38;;;15.09;38.14
49627;BME280;35527;54.616;39.786;2023-05-03T03:53:11;100433.50;;;15.74;36.85
49627;BME280;35527;54.616;39.786;2023-05-03T03:56:15;100437.25;;;15.68;36.97
49627;BME280;35527;54.616;39.786;2023-05-03T03:59:20;100429.66;;;14.91;37.84
49627;BME280;35527;54.616;39.786;2023-05-03T04:02:23;100434.44;;;15.54;37.30
49627;BME280;35527;54.616;39.786;2023-05-03T04:05:27;100432.22;;;15.98;36.00
49627;BME280;35527;54.616;39.786;2023-05-03T04:08:30;100440.63;;;16.21;35.90
49627;BME280;35527;54.616;39.786;2023-05-03T04:11:35;100428.13;;;16.59;35.33
49627;BME280;35527;54.616;39.786;2023-05-03T04:14:41;100429.53;;;17.44;33.84
49627;BME280;35527;54.616;39.786;2023-05-03T04:17:48;100436.88;;;17.68;33.65
49627;BME280;35527;54.616;39.786;2023-05-03T04:20:51;100431.19;;;18.20;33.16
49627;BME280;35527;54.616;39.786;2023-05-03T04:23:56;100390.78;;;18.10;32.46
49627;BME280;35527;54.616;39.786;2023-05-03T04:27:02;100432.47;;;18.56;32.19
49627;BME280;35527;54.616;39.786;2023-05-03T04:30:12;100421.44;;;18.36;32.36
49627;BME280;35527;54.616;39.786;2023-05-03T04:33:21;100427.69;;;18.48;32.13
49627;BME280;35527;54.616;39.786;2023-05-03T04:36:27;100439.13;;;18.61;31.84
49627;BME280;35527;54.616;39.786;2023-05-03T04:39:32;100404.88;;;18.21;32.21
49627;BME280;35527;54.616;39.786;2023-05-03T04:42:36;100431.09;;;19.06;31.55
49627;BME280;35527;54.616;39.786;2023-05-03T04:45:40;100430.47;;;19.42;30.85
49627;BME280;35527;54.616;39.786;2023-05-03T04:48:49;100425.88;;;19.58;30.51
49627;BME280;35527;54.616;39.786;2023-05-03T04:51:54;100433.16;;;19.68;30.56
49627;BME280;35527;54.616;39.786;2023-05-03T04:55:00;100428.06;;;19.92;30.57
49627;BME280;35527;54.616;39.786;2023-05-03T04:58:03;100417.44;;;20.06;29.27
49627;BME280;35527;54.616;39.786;2023-05-03T05:01:07;100425.84;;;19.98;30.13
49627;BME280;35527;54.616;39.786;2023-05-03T05:04:12;100406.69;;;19.71;30.10
49627;BME280;35527;54.616;39.786;2023-05-03T05:07:21;100392.84;;;19.82;30.23
49627;BME280;35527;54.616;39.786;2023-05-03T05:10:23;100382.38;;;20.31;29.84
49627;BME280;35527;54.616;39.786;2023-05-03T05:13:30;100417.03;;;20.99;28.89
49627;BME280;35527;54.616;39.786;2023-05-03T05:16:35;100397.66;;;20.76;29.14
49627;BME280;35527;54.616;39.786;2023-05-03T05:19:42;100392.31;;;20.52;29.25
49627;BME280;35527;54.616;39.786;2023-05-03T05:22:44;100392.09;;;20.91;28.84
49627;BME280;35527;54.616;39.786;2023-05-03T05:25:49;100395.50;;;21.29;28.41
49627;BME280;35527;54.616;39.786;2023-05-03T05:28:56;100375.97;;;21.44;28.08
49627;BME280;35527;54.616;39.786;2023-05-03T05:32:00;100352.13;;;21.46;28.80
49627;BME280;35527;54.616;39.786;2023-05-03T05:35:05;100388.84;;;21.94;27.32
49627;BME280;35527;54.616;39.786;2023-05-03T05:38:07;100376.91;;;22.23;27.09
49627;BME280;35527;54.616;39.786;2023-05-03T05:41:11;100382.88;;;22.48;26.93
49627;BME280;35527;54.616;39.786;2023-05-03T05:44:17;100371.50;;;22.25;27.26
49627;BME280;35527;54.616;39.786;2023-05-03T05:47:23;100360.84;;;22.38;26.84
49627;BME280;35527;54.616;39.786;2023-05-03T05:50:27;100369.28;;;23.07;26.63
49627;BME280;35527;54.616;39.786;2023-05-03T05:53:35;100373.66;;;23.71;25.71
49627;BME280;35527;54.616;39.786;2023-05-03T05:56:42;100354.75;;;23.13;26.23
49627;BME280;35527;54.616;39.786;2023-05-03T05:59:48;100354.34;;;23.59;25.55
49627;BME280;35527;54.616;39.786;2023-05-03T06:02:52;100357.19;;;23.05;26.26
49627;BME280;35527;54.616;39.786;2023-05-03T06:05:58;100373.66;;;22.86;25.98
49627;BME280;35527;54.616;39.786;2023-05-03T06:09:08;100329.28;;;23.54;24.81
49627;BME280;35527;54.616;39.786;2023-05-03T06:12:15;100334.59;;;23.33;24.81
49627;BME280;35527;54.616;39.786;2023-05-03T06:15:21;100334.03;;;23.60;24.93
49627;BME280;35527;54.616;39.786;2023-05-03T06:18:25;100336.44;;;23.63;25.40
49627;BME280;35527;54.616;39.786;2023-05-03T06:21:33;100333.47;;;24.18;24.57
49627;BME280;35527;54.616;39.786;2023-05-03T06:24:38;100344.31;;;24.45;24.03
49627;BME280;35527;54.616;39.786;2023-05-03T06:27:42;100310.28;;;23.91;24.68
49627;BME280;35527;54.616;39.786;2023-05-03T06:30:48;100352.59;;;23.91;24.72
49627;BME280;35527;54.616;39.786;2023-05-03T06:33:55;100354.53;;;24.19;24.63
49627;BME280;35527;54.616;39.786;2023-05-03T06:36:58;100347.56;;;24.18;25.15
49627;BME280;35527;54.616;39.786;2023-05-03T06:40:02;100339.00;;;24.05;24.91
49627;BME280;35527;54.616;39.786;2023-05-03T06:43:07;100341.84;;;23.82;24.93
49627;BME280;35527;54.616;39.786;2023-05-03T06:46:19;100323.69;;;23.26;25.54
49627;BME280;35527;54.616;39.786;2023-05-03T06:49:26;100314.88;;;23.16;25.54
49627;BME280;35527;54.616;39.786;2023-05-03T06:52:29;100323.88;;;23.34;25.53
49627;BME280;35527;54.616;39.786;2023-05-03T06:55:33;100354.81;;;23.23;25.27
49627;BME280;35527;54.616;39.786;2023-05-03T06:58:40;100355.22;;;23.39;25.39
49627;BME280;35527;54.616;39.786;2023-05-03T07:01:43;100371.66;;;23.94;24.87
49627;BME280;35527;54.616;39.786;2023-05-03T07:04:47;100340.91;;;24.34;24.68
49627;BME280;35527;54.616;39.786;2023-05-03T07:07:53;100340.47;;;24.79;24.46
49627;BME280;35527;54.616;39.786;2023-05-03T07:11:00;100344.22;;;25.05;23.26
49627;BME280;35527;54.616;39.786;2023-05-03T07:14:03;100343.72;;;24.42;24.30
49627;BME280;35527;54.616;39.786;2023-05-03T07:17:08;100345.34;;;24.64;23.97
49627;BME280;35527;54.616;39.786;2023-05-03T07:20:11;100343.66;;;24.82;24.17
49627;BME280;35527;54.616;39.786;2023-05-03T07:23:20;100334.78;;;24.33;24.02
49627;BME280;35527;54.616;39.786;2023-05-03T07:26:22;100315.78;;;24.59;24.21
49627;BME280;35527;54.616;39.786;2023-05-03T07:29:27;100345.63;;;25.19;23.83
49627;BME280;35527;54.616;39.786;2023-05-03T07:32:31;100343.94;;;24.79;24.14
49627;BME280;35527;54.616;39.786;2023-05-03T07:35:34;100318.84;;;24.44;24.05
49627;BME280;35527;54.616;39.786;2023-05-03T07:38:37;100317.91;;;24.24;24.62
49627;BME280;35527;54.616;39.786;2023-05-03T07:41:41;100306.72;;;24.90;24.40
49627;BME280;35527;54.616;39.786;2023-05-03T07:44:44;100348.69;;;24.76;24.39
49627;BME280;35527;54.616;39.786;2023-05-03T07:47:54;100346.84;;;24.57;24.67
49627;BME280;35527;54.616;39.786;2023-05-03T07:50:58;100368.31;;;24.83;24.58
49627;BME280;35527;54.616;39.786;2023-05-03T07:54:03;100321.41;;;24.25;25.34
49627;BME280;35527;54.616;39.786;2023-05-03T07:57:06;100341.03;;;23.92;25.80
49627;BME280;35527;54.616;39.786;2023-05-03T08:00:10;100369.19;;;23.93;25.62
49627;BME280;35527;54.616;39.786;2023-05-03T08:03:14;100336.84;;;23.58;25.88
49627;BME280;35527;54.616;39.786;2023-05-03T08:06:18;100343.09;;;23.36;26.58
49627;BME280;35527;54.616;39.786;2023-05-03T08:09:21;100335.75;;;23.61;25.95
49627;BME280;35527;54.616;39.786;2023-05-03T08:12:26;100333.34;;;23.79;26.11
49627;BME280;35527;54.616;39.786;2023-05-03T08:15:29;100358.63;;;24.02;25.96
49627;BME280;35527;54.616;39.786;2023-05-03T08:18:33;100324.06;;;23.85;26.36
49627;BME280;35527;54.616;39.786;2023-05-03T08:21:36;100325.59;;;23.66;26.86
49627;BME280;35527;54.616;39.786;2023-05-03T08:24:41;100280.47;;;23.79;26.24
49627;BME280;35527;54.616;39.786;2023-05-03T08:27:44;100316.91;;;23.75;26.89
49627;BME280;35527;54.616;39.786;2023-05-03T08:30:52;100298.41;;;23.24;26.77
49627;BME280;35527;54.616;39.786;2023-05-03T08:33:56;100308.81;;;22.06;28.00
49627;BME280;35527;54.616;39.786;2023-05-03T08:36:59;100324.59;;;21.14;29.19
49627;BME280;35527;54.616;39.786;2023-05-03T08:40:03;100312.13;;;21.05;29.66
49627;BME280;35527;54.616;39.786;2023-05-03T08:43:14;100308.34;;;20.85;29.92
49627;BME280;35527;54.616;39.786;2023-05-03T08:46:17;100296.81;;;20.14;31.50
49627;BME280;35527;54.616;39.786;2023-05-03T08:49:23;100325.16;;;19.85;31.95
49627;BME280;35527;54.616;39.786;2023-05-03T08:52:26;100295.75;;;19.42;32.31
49627;BME280;35527;54.616;39.786;2023-05-03T08:55:30;100303.00;;;19.38;33.36
49627;BME280;35527;54.616;39.786;2023-05-03T08:58:35;100323.88;;;19.40;33.15
49627;BME280;35527;54.616;39.786;2023-05-03T09:01:43;100292.13;;;19.17;33.48
49627;BME280;35527;54.616;39.786;2023-05-03T09:04:46;100310.06;;;18.98;33.64
49627;BME280;35527;54.616;39.786;2023-05-03T09:08:04;100311.00;;;18.69;34.65
49627;BME280;35527;54.616;39.786;2023-05-03T09:11:29;100294.22;;;18.45;35.66
49627;BME280;35527;54.616;39.786;2023-05-03T09:14:45;100294.13;;;18.46;34.88
49627;BME280;35527;54.616;39.786;2023-05-03T09:21:18;100303.06;;;18.57;35.25
49627;BME280;35527;54.616;39.786;2023-05-03T09:24:23;100308.03;;;18.61;35.61
49627;BME280;35527;54.616;39.786;2023-05-03T09:27:27;100284.13;;;18.39;35.68
49627;BME280;35527;54.616;39.786;2023-05-03T09:30:30;100307.28;;;18.32;36.66
49627;BME280;35527;54.616;39.786;2023-05-03T09:33:33;100308.94;;;18.33;36.49
49627;BME280;35527;54.616;39.786;2023-05-03T09:36:45;100316.38;;;18.27;36.70
49627;BME280;35527;54.616;39.786;2023-05-03T09:40:04;100311.81;;;18.57;36.68
49627;BME280;35527;54.616;39.786;2023-05-03T09:43:11;100324.00;;;18.71;36.49
49627;BME280;35527;54.616;39.786;2023-05-03T09:46:18;100310.19;;;19.09;35.50
49627;BME280;35527;54.616;39.786;2023-05-03T09:49:22;100311.16;;;19.33;35.42
49627;BME280;35527;54.616;39.786;2023-05-03T09:52:29;100305.72;;;19.62;34.17
49627;BME280;35527;54.616;39.786;2023-05-03T09:55:36;100306.53;;;19.63;34.91
49627;BME280;35527;54.616;39.786;2023-05-03T09:58:42;100333.38;;;19.80;34.76
49627;BME280;35527;54.616;39.786;2023-05-03T10:01:49;100328.97;;;19.81;34.89
49627;BME280;35527;54.616;39.786;2023-05-03T10:04:56;100333.50;;;19.66;35.58
49627;BME280;35527;54.616;39.786;2023-05-03T10:08:02;100332.56;;;19.15;35.96
49627;BME280;35527;54.616;39.786;2023-05-03T10:11:08;100304.25;;;18.65;36.98
49627;BME280;35527;54.616;39.786;2023-05-03T10:14:15;100312.59;;;18.72;36.54
49627;BME280;35527;54.616;39.786;2023-05-03T10:17:28;100320.44;;;18.72;36.32
49627;BME280;35527;54.616;39.786;2023-05-03T10:21:04;100319.91;;;18.67;36.32
49627;BME280;35527;54.616;39.786;2023-05-03T10:24:15;100307.72;;;18.39;36.94
49627;BME280;35527;54.616;39.786;2023-05-03T10:27:20;100300.66;;;18.54;37.20
49627;BME280;35527;54.616;39.786;2023-05-03T10:33:32;100313.56;;;19.24;36.19
49627;BME280;35527;54.616;39.786;2023-05-03T10:36:41;100292.38;;;19.27;36.01
49627;BME280;35527;54.616;39.786;2023-05-03T10:39:54;100299.09;;;19.18;36.05
49627;BME280;35527;54.616;39.786;2023-05-03T10:42:59;100297.41;;;19.30;36.57
49627;BME280;35527;54.616;39.786;2023-05-03T10:46:04;100306.78;;;19.85;35.12
49627;BME280;35527;54.616;39.786;2023-05-03T10:49:18;100312.53;;;20.03;35.90
49627;BME280;35527;54.616;39.786;2023-05-03T10:56:02;100301.94;;;19.79;35.09
49627;BME280;35527;54.616;39.786;2023-05-03T10:59:11;100282.41;;;19.70;34.97
49627;BME280;35527;54.616;39.786;2023-05-03T11:02:17;100288.59;;;19.82;35.79
49627;BME280;35527;54.616;39.786;2023-05-03T11:05:25;100281.84;;;19.91;34.91
49627;BME280;35527;54.616;39.786;2023-05-03T11:08:35;100308.13;;;20.03;34.76
49627;BME280;35527;54.616;39.786;2023-05-03T11:11:40;100299.19;;;19.93;36.04
49627;BME280;35527;54.616;39.786;2023-05-03T11:14:44;100288.06;;;19.90;35.12
49627;BME280;35527;54.616;39.786;2023-05-03T11:17:48;100269.97;;;19.98;35.09
49627;BME280;35527;54.616;39.786;2023-05-03T11:20:54;100302.00;;;20.16;35.50
49627;BME280;35527;54.616;39.786;2023-05-03T11:24:00;100296.34;;;20.46;35.43
49627;BME280;35527;54.616;39.786;2023-05-03T11:27:05;100272.41;;;20.62;34.54
49627;BME280;35527;54.616;39.786;2023-05-03T11:30:13;100261.34;;;20.81;34.81
49627;BME280;35527;54.616;39.786;2023-05-03T11:33:22;100263.13;;;20.69;35.36
49627;BME280;35527;54.616;39.786;2023-05-03T11:36:26;100278.78;;;20.70;35.70
49627;BME280;35527;54.616;39.786;2023-05-03T11:39:33;100272.78;;;20.68;35.81
49627;BME280;35527;54.616;39.786;2023-05-03T11:42:52;100237.19;;;20.03;36.60
49627;BME280;35527;54.616;39.786;2023-05-03T11:45:56;100254.94;;;20.00;36.08
49627;BME280;35527;54.616;39.786;2023-05-03T11:49:01;100271.16;;;19.81;36.71
49627;BME280;35527;54.616;39.786;2023-05-03T11:52:05;100272.09;;;19.93;37.34
49627;BME280;35527;54.616;39.786;2023-05-03T11:55:10;100264.69;;;20.11;37.19
49627;BME280;35527;54.616;39.786;2023-05-03T11:58:22;100274.81;;;20.28;35.94
49627;BME280;35527;54.616;39.786;2023-05-03T12:01:28;100270.91;;;20.34;36.57
49627;BME280;35527;54.616;39.786;2023-05-03T12:04:32;100255.56;;;20.52;36.09
49627;BME280;35527;54.616;39.786;2023-05-03T12:07:39;100275.03;;;20.62;36.52
49627;BME280;35527;54.616;39.786;2023-05-03T12:10:45;100268.34;;;20.45;35.74
49627;BME280;35527;54.616;39.786;2023-05-03T12:13:59;100272.41;;;20.25;36.48
49627;BME280;35527;54.616;39.786;2023-05-03T12:17:04;100286.91;;;20.31;36.86
49627;BME280;35527;54.616;39.786;2023-05-03T12:20:22;100261.13;;;20.12;36.77
49627;BME280;35527;54.616;39.786;2023-05-03T12:23:31;100270.16;;;20.08;37.14
49627;BME280;35527;54.616;39.786;2023-05-03T12:26:37;100285.31;;;20.04;37.71
49627;BME280;35527;54.616;39.786;2023-05-03T12:29:58;100293.22;;;19.78;38.52
49627;BME280;35527;54.616;39.786;2023-05-03T12:33:02;100265.38;;;19.50;38.85
49627;BME280;35527;54.616;39.786;2023-05-03T12:36:09;100264.25;;;19.29;39.10
49627;BME280;35527;54.616;39.786;2023-05-03T12:39:14;100288.34;;;19.08;39.90
49627;BME280;35527;54.616;39.786;2023-05-03T12:42:18;100273.97;;;19.01;39.49
49627;BME280;35527;54.616;39.786;2023-05-03T12:45:26;100285.56;;;18.84;39.40
49627;BME280;35527;54.616;39.786;2023-05-03T12:48:35;100264.56;;;18.72;40.11
49627;BME280;35527;54.616;39.786;2023-05-03T12:51:38;100286.81;;;18.79;39.83
49627;BME280;35527;54.616;39.786;2023-05-03T12:54:43;100286.00;;;18.91;39.85
49627;BME280;35527;54.616;39.786;2023-05-03T12:57:50;100261.69;;;18.89;39.64
49627;BME280;35527;54.616;39.786;2023-05-03T13:01:04;100289.59;;;18.90;40.68
49627;BME280;35527;54.616;39.786;2023-05-03T13:04:26;100277.41;;;18.89;40.69
49627;BME280;35527;54.616;39.786;2023-05-03T13:07:32;100291.91;;;18.95;40.82
49627;BME280;35527;54.616;39.786;2023-05-03T13:10:41;100289.81;;;18.73;40.57
49627;BME280;35527;54.616;39.786;2023-05-03T13:13:44;100309.22;;;18.70;41.29
49627;BME280;35527;54.616;39.786;2023-05-03T13:16:47;100290.34;;;18.51;40.85
49627;BME280;35527;54.616;39.786;2023-05-03T13:19:54;100307.78;;;18.52;40.81
49627;BME280;35527;54.616;39.786;2023-05-03T13:22:59;100315.19;;;18.45;40.62
49627;BME280;35527;54.616;39.786;2023-05-03T13:26:05;100314.09;;;18.35;41.53
49627;BME280;35527;54.616;39.786;2023-05-03T13:29:12;100317.75;;;18.32;40.50
49627;BME280;35527;54.616;39.786;2023-05-03T13:32:21;100310.81;;;18.31;40.17
49627;BME280;35527;54.616;39.786;2023-05-03T13:35:24;100319.44;;;18.33;40.36
49627;BME280;35527;54.616;39.786;2023-05-03T13:38:29;100305.47;;;18.06;40.92
49627;BME280;35527;54.616;39.786;2023-05-03T13:41:32;100307.78;;;17.82;40.90
49627;BME280;35527;54.616;39.786;2023-05-03T13:44:38;100323.81;;;17.91;42.23
49627;BME280;35527;54.616;39.786;2023-05-03T13:47:45;100321.34;;;17.88;42.29
49627;BME280;35527;54.616;39.786;2023-05-03T13:51:08;100306.97;;;17.81;42.12
49627;BME280;35527;54.616;39.786;2023-05-03T13:54:26;100322.72;;;17.65;42.22
49627;BME280;35527;54.616;39.786;2023-05-03T13:57:32;100319.53;;;17.46;42.46
49627;BME280;35527;54.616;39.786;2023-05-03T14:00:34;100322.84;;;17.33;42.97
49627;BME280;35527;54.616;39.786;2023-05-03T14:03:40;100333.53;;;17.45;43.64
49627;BME280;35527;54.616;39.786;2023-05-03T14:06:43;100324.28;;;17.39;45.03
49627;BME280;35527;54.616;39.786;2023-05-03T14:09:48;100333.69;;;17.27;45.28
49627;BME280;35527;54.616;39.786;2023-05-03T14:12:54;100327.97;;;17.21;45.36
49627;BME280;35527;54.616;39.786;2023-05-03T14:16:04;100321.91;;;17.20;45.78
49627;BME280;35527;54.616;39.786;2023-05-03T14:19:07;100310.56;;;17.05;46.65
49627;BME280;35527;54.616;39.786;2023-05-03T14:22:13;100321.88;;;17.06;46.97
49627;BME280;35527;54.616;39.786;2023-05-03T14:25:16;100309.41;;;16.95;47.02
49627;BME280;35527;54.616;39.786;2023-05-03T14:28:21;100315.91;;;16.88;47.93
49627;BME280;35527;54.616;39.786;2023-05-03T14:31:24;100323.94;;;16.85;48.22
49627;BME280;35527;54.616;39.786;2023-05-03T14:34:28;100339.63;;;16.85;48.23
49627;BME280;35527;54.616;39.786;2023-05-03T14:37:32;100342.41;;;16.66;47.77
49627;BME280;35527;54.616;39.786;2023-05-03T14:40:44;100334.25;;;16.40;49.20
49627;BME280;35527;54.616;39.786;2023-05-03T14:43:49;100332.31;;;16.28;49.33
49627;BME280;35527;54.616;39.786;2023-05-03T14:46:52;100337.66;;;16.25;49.52
49627;BME280;35527;54.616;39.786;2023-05-03T14:50:01;100334.38;;;16.21;49.41
49627;BME280;35527;54.616;39.786;2023-05-03T14:53:12;100337.09;;;16.20;49.77
49627;BME280;35527;54.616;39.786;2023-05-03T14:56:15;100333.28;;;16.10;50.51
49627;BME280;35527;54.616;39.786;2023-05-03T14:59:18;100336.41;;;16.16;50.13
49627;BME280;35527;54.616;39.786;2023-05-03T15:02:20;100333.78;;;16.16;50.75
49627;BME280;35527;54.616;39.786;2023-05-03T15:05:25;100336.16;;;16.21;50.69
49627;BME280;35527;54.616;39.786;2023-05-03T15:08:28;100336.63;;;15.96;50.51
49627;BME280;35527;54.616;39.786;2023-05-03T15:11:32;100337.88;;;15.89;50.64
49627;BME280;35527;54.616;39.786;2023-05-03T15:14:36;100329.59;;;15.81;51.74
49627;BME280;35527;54.616;39.786;2023-05-03T15:17:41;100341.22;;;15.75;52.32
49627;BME280;35527;54.616;39.786;2023-05-03T15:20:45;100347.28;;;15.75;51.44
49627;BME280;35527;54.616;39.786;2023-05-03T15:23:48;100317.59;;;15.43;52.02
49627;BME280;35527;54.616;39.786;2023-05-03T15:26:51;100334.28;;;15.57;52.30
49627;BME280;35527;54.616;39.786;2023-05-03T15:29:56;100343.81;;;15.58;52.57
49627;BME280;35527;54.616;39.786;2023-05-03T15:33:00;100343.19;;;15.52;51.53
49627;BME280;35527;54.616;39.786;2023-05-03T15:36:07;100343.13;;;15.54;51.95
49627;BME280;35527;54.616;39.786;2023-05-03T15:39:10;100345.81;;;15.52;52.51
49627;BME280;35527;54.616;39.786;2023-05-03T15:42:14;100336.31;;;15.34;52.76
49627;BME280;35527;54.616;39.786;2023-05-03T15:45:16;100360.31;;;15.41;52.82
49627;BME280;35527;54.616;39.786;2023-05-03T15:48:20;100345.44;;;15.25;52.79
49627;BME280;35527;54.616;39.786;2023-05-03T15:51:25;100337.31;;;15.14;53.02
49627;BME280;35527;54.616;39.786;2023-05-03T15:54:31;100357.88;;;15.20;52.96
49627;BME280;35527;54.616;39.786;2023-05-03T15:57:33;100358.56;;;15.24;53.30
49627;BME280;35527;54.616;39.786;2023-05-03T16:00:37;100355.94;;;15.06;52.94
49627;BME280;35527;54.616;39.786;2023-05-03T16:03:42;100363.59;;;15.09;52.94
49627;BME280;35527;54.616;39.786;2023-05-03T16:06:47;100382.69;;;15.10;52.65
49627;BME280;35527;54.616;39.786;2023-05-03T16:09:49;100378.84;;;15.00;52.33
49627;BME280;35527;54.616;39.786;2023-05-03T16:12:56;100375.72;;;14.74;53.37
49627;BME280;35527;54.616;39.786;2023-05-03T16:15:59;100361.66;;;14.59;53.04
49627;BME280;35527;54.616;39.786;2023-05-03T16:19:04;100384.59;;;14.70;54.02